createdAt,value
2019-02-09T00:00:19.596Z,36.33
2019-02-09T00:02:46.261Z,40.65
2019-02-09T00:05:13.208Z,30.17
2019-02-09T00:07:39.905Z,39.83
2019-02-09T00:10:06.756Z,34.03
2019-02-09T00:12:33.845Z,33.45
2019-02-09T00:15:00.795Z,32.43
2019-02-09T00:17:27.428Z,35.13
2019-02-09T00:19:54.126Z,35.83
2019-02-09T00:22:20.893Z,45.27
2019-02-09T00:24:47.872Z,38.87
2019-02-09T00:27:14.673Z,39.00
2019-02-09T00:29:46.488Z,33.15
2019-02-09T00:32:12.347Z,41.33
2019-02-09T00:34:39.081Z,46.07
2019-02-09T00:37:06.027Z,34.33
2019-02-09T00:39:32.985Z,31.17
2019-02-09T00:41:59.611Z,43.53
2019-02-09T00:44:26.500Z,29.60
2019-02-09T00:46:53.176Z,31.43
2019-02-09T00:49:20.421Z,35.90
2019-02-09T00:51:47.172Z,36.23
2019-02-09T00:54:14.088Z,39.10
2019-02-09T00:56:41.974Z,34.20
2019-02-09T00:59:08.610Z,38.53
2019-02-09T01:01:35.458Z,41.73
2019-02-09T01:04:02.051Z,38.10
2019-02-09T01:06:28.732Z,35.07
2019-02-09T01:08:55.370Z,35.73
2019-02-09T01:11:22.100Z,34.10
2019-02-09T01:13:48.918Z,35.13
2019-02-09T01:16:15.560Z,40.67
2019-02-09T01:18:42.420Z,32.67
2019-02-09T01:21:09.085Z,35.80
2019-02-09T01:23:35.708Z,34.07
2019-02-09T01:26:02.378Z,32.77
2019-02-09T01:28:28.992Z,33.40
2019-02-09T01:30:55.565Z,30.07
2019-02-09T01:33:22.328Z,29.70
2019-02-09T01:35:48.979Z,38.03
2019-02-09T01:38:15.943Z,37.40
2019-02-09T01:40:42.591Z,38.77
2019-02-09T01:43:09.307Z,40.27
2019-02-09T01:45:36.225Z,38.42
2019-02-09T01:48:02.846Z,32.53
2019-02-09T01:50:29.549Z,35.00
2019-02-09T01:52:56.185Z,34.80
2019-02-09T01:55:22.802Z,28.00
2019-02-09T01:57:49.565Z,32.03
2019-02-09T02:00:16.208Z,31.17
2019-02-09T02:02:43.588Z,25.63
2019-02-09T02:05:10.579Z,34.17
2019-02-09T02:07:37.233Z,28.47
2019-02-09T02:10:03.907Z,34.50
2019-02-09T02:12:30.542Z,32.63
2019-02-09T02:14:57.484Z,32.65
2019-02-09T02:17:24.183Z,29.47
2019-02-09T02:19:50.836Z,33.97
2019-02-09T02:22:17.533Z,38.00
2019-02-09T02:24:44.443Z,33.60
2019-02-09T02:27:11.233Z,40.70
2019-02-09T02:29:38.240Z,30.75
2019-02-09T02:32:04.856Z,30.97
2019-02-09T02:34:31.493Z,36.57
2019-02-09T02:36:58.403Z,35.48
2019-02-09T02:39:25.073Z,34.70
2019-02-09T02:41:51.773Z,30.97
2019-02-09T02:44:19.511Z,34.85
2019-02-09T02:46:46.193Z,30.37
2019-02-09T02:49:12.934Z,32.10
2019-02-09T02:51:39.844Z,42.27
2019-02-09T02:54:06.783Z,40.15
2019-02-09T02:56:33.728Z,39.27
2019-02-09T02:59:01.284Z,42.97
2019-02-09T03:01:29.598Z,33.97
2019-02-09T03:03:57.074Z,40.57
2019-02-09T03:06:24.456Z,41.60
2019-02-09T03:08:51.135Z,31.93
2019-02-09T03:11:18.685Z,37.70
2019-02-09T03:13:45.589Z,40.67
2019-02-09T03:16:12.372Z,35.37
2019-02-09T03:18:39.224Z,35.43
2019-02-09T03:21:06.339Z,39.50
2019-02-09T03:23:33.300Z,31.55
2019-02-09T03:26:00.112Z,33.70
2019-02-09T03:28:26.770Z,40.97
2019-02-09T03:30:54.384Z,32.33
2019-02-09T03:33:28.644Z,39.87
2019-02-09T03:35:56.007Z,28.50
2019-02-09T03:38:22.947Z,27.20
2019-02-09T03:40:49.682Z,33.35
2019-02-09T03:43:17.351Z,30.43
2019-02-09T03:45:45.436Z,28.47
2019-02-09T03:48:12.081Z,33.80
2019-02-09T03:50:42.592Z,30.07
2019-02-09T03:53:09.429Z,31.27
2019-02-09T03:55:36.965Z,29.53
2019-02-09T03:58:03.687Z,33.13
2019-02-09T04:00:30.293Z,36.40
2019-02-09T04:02:56.935Z,41.03
2019-02-09T04:05:23.804Z,32.27
2019-02-09T04:07:50.765Z,33.14
2019-02-09T04:10:17.457Z,32.70
2019-02-09T04:12:44.085Z,32.83
2019-02-09T04:15:11.408Z,33.20
2019-02-09T04:17:38.120Z,36.73
2019-02-09T04:20:05.018Z,35.73
2019-02-09T04:22:31.947Z,39.95
2019-02-09T04:24:58.688Z,36.40
2019-02-09T04:27:25.393Z,35.27
2019-02-09T04:29:52.157Z,32.87
2019-02-09T04:32:19.083Z,26.77
2019-02-09T04:34:46.535Z,30.88
2019-02-09T04:37:13.286Z,39.23
2019-02-09T04:39:40.027Z,36.50
2019-02-09T04:42:08.642Z,36.13
2019-02-09T04:44:35.284Z,31.90
2019-02-09T04:47:01.916Z,34.53
2019-02-09T04:49:29.378Z,27.23
2019-02-09T04:51:56.550Z,30.10
2019-02-09T04:54:25.827Z,35.97
2019-02-09T04:56:53.592Z,32.37
2019-02-09T04:59:21.485Z,29.37
2019-02-09T05:01:48.122Z,28.83
2019-02-09T05:04:14.738Z,28.27
2019-02-09T05:06:41.522Z,36.30
2019-02-09T05:09:08.190Z,28.20
2019-02-09T05:11:34.867Z,30.20
2019-02-09T05:14:01.727Z,35.73
2019-02-09T05:16:28.397Z,34.30
2019-02-09T05:18:54.988Z,33.17
2019-02-09T05:21:21.794Z,30.13
2019-02-09T05:23:48.711Z,30.32
2019-02-09T05:26:16.555Z,30.47
2019-02-09T05:28:43.239Z,27.33
2019-02-09T05:31:10.037Z,28.63
2019-02-09T05:33:36.962Z,26.13
2019-02-09T05:36:03.672Z,34.50
2019-02-09T05:38:30.282Z,36.20
2019-02-09T05:40:57.119Z,36.23
2019-02-09T05:43:24.032Z,31.17
2019-02-09T05:45:50.743Z,35.03
2019-02-09T05:48:17.646Z,36.17
2019-02-09T05:50:44.447Z,35.03
2019-02-09T05:53:11.354Z,35.90
2019-02-09T05:55:38.243Z,37.95
2019-02-09T05:58:04.934Z,35.83
2019-02-09T06:00:31.657Z,30.73
2019-02-09T06:02:58.586Z,35.63
2019-02-09T06:05:25.499Z,38.67
2019-02-09T06:07:52.165Z,37.53
2019-02-09T06:10:18.792Z,40.63
2019-02-09T06:12:45.808Z,35.30
2019-02-09T06:15:12.689Z,32.73
2019-02-09T06:17:40.647Z,35.17
2019-02-09T06:20:09.068Z,32.45
2019-02-09T06:22:37.115Z,31.15
2019-02-09T06:25:10.030Z,32.03
2019-02-09T06:30:25.255Z,35.38
2019-02-09T06:32:56.085Z,32.40
2019-02-09T06:35:23.973Z,35.55
2019-02-09T06:37:53.381Z,30.80
2019-02-09T06:43:06.977Z,28.97
2019-02-09T06:45:33.884Z,31.70
2019-02-09T06:48:00.551Z,28.07
2019-02-09T06:50:27.171Z,26.10
2019-02-09T06:52:54.096Z,28.30
2019-02-09T06:55:20.973Z,27.63
2019-02-09T06:57:48.405Z,26.45
2019-02-09T07:00:15.635Z,28.93
2019-02-09T07:02:42.243Z,25.37
2019-02-09T07:05:09.111Z,34.87
2019-02-09T07:07:36.085Z,29.95
2019-02-09T07:10:02.686Z,28.47
2019-02-09T07:12:29.275Z,28.57
2019-02-09T07:14:56.189Z,28.05
2019-02-09T07:17:22.813Z,29.35
2019-02-09T07:19:49.478Z,33.70
2019-02-09T07:22:16.478Z,32.13
2019-02-09T07:24:43.324Z,27.90
2019-02-09T07:27:09.931Z,34.43
2019-02-09T07:29:36.586Z,31.97
2019-02-09T07:32:03.426Z,30.90
2019-02-09T07:34:30.022Z,35.70
2019-02-09T07:36:56.728Z,30.63
2019-02-09T07:39:23.488Z,34.80
2019-02-09T07:41:50.106Z,35.93
2019-02-09T07:44:16.725Z,36.27
2019-02-09T07:46:43.576Z,38.90
2019-02-09T07:49:10.485Z,35.95
2019-02-09T07:51:37.754Z,33.47
2019-02-09T07:54:04.769Z,35.13
2019-02-09T07:56:31.620Z,31.20
2019-02-09T07:58:58.253Z,32.30
2019-02-09T08:01:25.084Z,30.80
2019-02-09T08:03:51.852Z,30.50
2019-02-09T08:06:19.266Z,27.22
2019-02-09T08:08:45.942Z,28.27
2019-02-09T08:11:12.853Z,24.05
2019-02-09T08:13:39.565Z,24.33
2019-02-09T08:16:06.526Z,27.63
2019-02-09T08:18:35.029Z,27.23
2019-02-09T08:21:01.702Z,25.00
2019-02-09T08:23:28.389Z,28.20
2019-02-09T08:25:55.157Z,27.40
2019-02-09T08:28:22.086Z,26.73
2019-02-09T08:30:49.549Z,24.35
2019-02-09T08:33:17.201Z,26.33
2019-02-09T08:35:44.759Z,23.93
2019-02-09T08:38:11.516Z,24.93
2019-02-09T08:40:38.295Z,22.67
2019-02-09T08:43:05.414Z,22.73
2019-02-09T08:45:32.318Z,29.98
2019-02-09T08:47:58.920Z,28.47
2019-02-09T08:50:25.556Z,26.03
2019-02-09T08:52:52.420Z,22.80
2019-02-09T08:55:19.854Z,23.15
2019-02-09T08:57:46.623Z,23.13
2019-02-09T09:00:13.618Z,27.47
2019-02-09T09:02:40.675Z,29.03
2019-02-09T09:05:09.854Z,31.85
2019-02-09T09:07:36.696Z,27.07
2019-02-09T09:10:03.660Z,31.55
2019-02-09T09:12:30.464Z,35.50
2019-02-09T09:14:57.231Z,39.43
2019-02-09T09:17:23.968Z,42.87
2019-02-09T09:19:50.828Z,42.47
2019-02-09T09:22:17.524Z,44.03
2019-02-09T09:24:44.414Z,46.27
2019-02-09T09:27:11.129Z,45.10
2019-02-09T09:29:37.766Z,48.07
2019-02-09T09:32:04.715Z,45.47
2019-02-09T09:34:31.709Z,45.20
2019-02-09T09:36:58.925Z,45.33
2019-02-09T09:39:25.873Z,49.10
2019-02-09T09:41:52.708Z,43.33
2019-02-09T09:44:21.121Z,42.62
2019-02-09T09:46:47.809Z,46.13
2019-02-09T09:49:14.827Z,39.07
2019-02-09T09:51:41.750Z,39.53
2019-02-09T09:54:08.384Z,43.07
2019-02-09T09:56:35.025Z,46.63
2019-02-09T09:59:01.883Z,46.97
2019-02-09T10:01:28.803Z,40.10
2019-02-09T10:03:55.533Z,40.67
2019-02-09T10:06:22.173Z,41.17
2019-02-09T10:08:48.944Z,47.73
2019-02-09T10:11:15.736Z,39.03
2019-02-09T10:13:42.367Z,42.97
2019-02-09T10:16:09.193Z,37.57
2019-02-09T10:18:36.149Z,43.07
2019-02-09T10:21:03.940Z,40.30
2019-02-09T10:23:31.561Z,37.60
2019-02-09T10:25:58.658Z,42.33
2019-02-09T10:28:25.361Z,41.70
2019-02-09T10:30:52.415Z,44.50
2019-02-09T10:33:19.520Z,41.07
2019-02-09T10:35:46.434Z,38.27
2019-02-09T10:38:13.437Z,39.90
2019-02-09T10:40:40.159Z,41.77
2019-02-09T10:43:07.097Z,39.23
2019-02-09T10:45:33.882Z,36.50
2019-02-09T10:48:00.794Z,34.43
2019-02-09T10:50:27.728Z,39.15
2019-02-09T10:52:54.741Z,39.30
2019-02-09T10:55:22.148Z,34.27
2019-02-09T10:57:48.827Z,36.57
2019-02-09T11:00:16.173Z,32.70
2019-02-09T11:02:42.908Z,32.07
2019-02-09T11:05:09.746Z,35.60
2019-02-09T11:07:36.427Z,34.90
2019-02-09T11:10:03.357Z,34.23
2019-02-09T11:12:30.070Z,32.87
2019-02-09T11:14:57.019Z,34.03
2019-02-09T11:17:23.960Z,30.10
2019-02-09T11:19:52.283Z,31.42
2019-02-09T11:22:19.204Z,33.97
2019-02-09T11:24:46.407Z,31.93
2019-02-09T11:27:13.453Z,30.20
2019-02-09T11:29:40.236Z,31.40
2019-02-09T11:32:07.099Z,32.90
2019-02-09T11:34:33.748Z,32.30
2019-02-09T11:37:00.645Z,32.23
2019-02-09T11:39:27.627Z,26.62
2019-02-09T11:41:54.266Z,31.43
2019-02-09T11:44:20.879Z,29.17
2019-02-09T11:46:47.760Z,29.63
2019-02-09T11:49:15.002Z,25.23
2019-02-09T11:51:42.201Z,26.37
2019-02-09T11:54:08.947Z,25.90
2019-02-09T11:56:36.360Z,28.25
2019-02-09T11:59:03.058Z,27.53
2019-02-09T12:01:30.318Z,23.15
2019-02-09T12:03:56.943Z,26.57
2019-02-09T12:06:24.375Z,27.80
2019-02-09T12:08:51.137Z,26.53
2019-02-09T12:11:18.091Z,23.67
2019-02-09T12:13:45.107Z,22.57
2019-02-09T12:16:12.410Z,27.55
2019-02-09T12:18:43.966Z,24.43
2019-02-09T12:21:10.677Z,22.90
2019-02-09T12:23:37.362Z,23.90
2019-02-09T12:26:04.396Z,24.73
2019-02-09T12:28:31.266Z,21.67
2019-02-09T12:30:58.427Z,22.52
2019-02-09T12:33:25.303Z,25.30
2019-02-09T12:35:52.386Z,24.10
2019-02-09T12:38:19.435Z,21.53
2019-02-09T12:40:46.440Z,19.10
2019-02-09T12:43:13.562Z,20.20
2019-02-09T12:45:40.988Z,17.23
2019-02-09T12:48:07.715Z,21.13
2019-02-09T12:50:34.729Z,21.75
2019-02-09T12:53:02.769Z,20.80
2019-02-09T12:55:29.703Z,21.73
2019-02-09T12:57:56.637Z,21.27
2019-02-09T13:00:24.973Z,20.12
2019-02-09T13:02:51.663Z,19.47
2019-02-09T13:05:18.665Z,19.10
2019-02-09T13:07:45.836Z,18.10
2019-02-09T13:10:13.074Z,17.62
2019-02-09T13:12:39.736Z,20.17
2019-02-09T13:17:39.989Z,17.27
2019-02-09T13:20:06.741Z,20.25
2019-02-09T13:22:33.471Z,18.57
2019-02-09T13:25:00.195Z,20.80
2019-02-09T13:27:26.936Z,17.30
2019-02-09T13:29:55.425Z,19.25
2019-02-09T13:32:22.260Z,16.90
2019-02-09T13:34:49.485Z,17.90
2019-02-09T13:37:16.315Z,17.97
2019-02-09T13:39:43.419Z,22.90
2019-02-09T13:42:10.135Z,22.33
2019-02-09T13:44:37.078Z,18.02
2019-02-09T13:47:03.845Z,16.80
2019-02-09T13:49:30.837Z,15.40
2019-02-09T13:51:57.627Z,15.77
2019-02-09T13:54:25.636Z,16.30
2019-02-09T13:56:52.421Z,16.97
2019-02-09T13:59:19.110Z,13.03
2019-02-09T14:01:46.171Z,17.93
2019-02-09T14:04:13.582Z,17.33
2019-02-09T14:06:40.322Z,18.52
2019-02-09T14:09:07.383Z,17.30
2019-02-09T14:11:34.251Z,14.85
2019-02-09T14:14:01.282Z,11.68
2019-02-09T14:16:28.261Z,14.40
2019-02-09T14:18:55.286Z,13.03
2019-02-09T14:21:21.944Z,15.10
2019-02-09T14:23:48.810Z,11.97
2019-02-09T14:26:15.455Z,15.33
2019-02-09T14:28:42.157Z,13.03
2019-02-09T14:31:09.176Z,14.23
2019-02-09T14:33:36.114Z,15.00
2019-02-09T14:36:02.939Z,12.67
2019-02-09T14:38:31.461Z,12.20
2019-02-09T14:40:58.072Z,12.07
2019-02-09T14:43:26.738Z,12.80
2019-02-09T14:45:54.060Z,10.38
2019-02-09T14:48:22.988Z,11.67
2019-02-09T14:53:40.184Z,11.43
2019-02-09T14:56:07.619Z,9.63
2019-02-09T14:58:35.024Z,10.30
2019-02-09T15:01:02.558Z,11.43
2019-02-09T15:03:30.821Z,10.93
2019-02-09T15:05:57.677Z,11.33
2019-02-09T15:08:25.192Z,10.27
2019-02-09T15:10:52.332Z,10.15
2019-02-09T15:13:19.130Z,9.90
2019-02-09T15:15:46.400Z,12.90
2019-02-09T15:18:13.338Z,10.30
2019-02-09T15:20:40.577Z,11.33
2019-02-09T15:23:07.450Z,12.93
2019-02-09T15:25:35.158Z,14.05
2019-02-09T15:28:03.223Z,11.07
2019-02-09T15:30:30.084Z,14.07
2019-02-09T15:32:57.152Z,14.50
2019-02-09T15:35:24.314Z,13.60
2019-02-09T15:37:51.096Z,12.57
2019-02-09T15:40:18.186Z,11.73
2019-02-09T15:42:45.825Z,12.90
2019-02-09T15:45:13.464Z,11.38
2019-02-09T15:47:40.272Z,11.73
2019-02-09T15:50:07.312Z,13.90
2019-02-09T15:52:36.214Z,15.93
2019-02-09T15:55:03.114Z,14.67
2019-02-09T15:57:30.492Z,12.00
2019-02-09T15:59:57.551Z,12.07
2019-02-09T16:02:24.562Z,15.10
2019-02-09T16:04:51.283Z,12.47
2019-02-09T16:07:19.068Z,13.50
2019-02-09T16:09:45.986Z,16.23
2019-02-09T16:12:13.321Z,18.15
2019-02-09T16:14:40.332Z,15.67
2019-02-09T16:17:07.567Z,13.50
2019-02-09T16:19:35.819Z,13.43
2019-02-09T16:22:02.548Z,15.07
2019-02-09T16:24:29.581Z,18.03
2019-02-09T16:26:56.675Z,14.73
2019-02-09T16:29:23.757Z,18.62
2019-02-09T16:31:51.768Z,14.77
2019-02-09T16:34:25.342Z,17.93
2019-02-09T16:36:47.505Z,14.75
2019-02-09T16:39:14.416Z,13.93
2019-02-09T16:44:10.528Z,15.27
2019-02-09T16:46:37.552Z,16.83
2019-02-09T16:49:05.782Z,15.53
2019-02-09T16:51:32.576Z,17.47
2019-02-09T16:53:59.471Z,18.15
2019-02-09T16:56:26.114Z,15.83
2019-02-09T16:58:52.830Z,14.30
2019-02-09T17:01:19.651Z,16.00
2019-02-09T17:03:46.662Z,15.23
2019-02-09T17:06:23.251Z,15.15
2019-02-09T17:08:45.716Z,15.97
2019-02-09T17:11:12.728Z,16.80
2019-02-09T17:13:39.872Z,21.73
2019-02-09T17:16:07.043Z,15.20
2019-02-09T17:18:33.773Z,22.97
2019-02-09T17:21:03.799Z,24.37
2019-02-09T17:23:30.076Z,28.50
2019-02-09T17:25:56.863Z,24.93
2019-02-09T17:28:23.806Z,29.98
2019-02-09T17:30:50.892Z,23.50
2019-02-09T17:33:18.995Z,19.77
2019-02-09T17:35:45.969Z,23.10
2019-02-09T17:38:13.272Z,23.23
2019-02-09T17:40:40.200Z,28.57
2019-02-09T17:43:07.147Z,31.13
2019-02-09T17:45:34.060Z,28.97
2019-02-09T17:48:00.982Z,33.95
2019-02-09T17:50:27.616Z,28.17
2019-02-09T17:52:54.502Z,27.75
2019-02-09T17:55:21.283Z,30.07
2019-02-09T17:57:47.974Z,25.97
2019-02-09T18:00:14.632Z,25.25
2019-02-09T18:02:41.419Z,24.47
2019-02-09T18:05:08.116Z,32.43
2019-02-09T18:07:34.898Z,34.70
2019-02-09T18:10:01.549Z,34.10
2019-02-09T18:12:28.496Z,36.33
2019-02-09T18:14:55.209Z,45.87
2019-02-09T18:17:22.225Z,40.07
2019-02-09T18:19:49.192Z,32.47
2019-02-09T18:22:16.139Z,35.17
2019-02-09T18:24:43.154Z,37.98
2019-02-09T18:27:11.468Z,34.10
2019-02-09T18:29:38.356Z,38.43
2019-02-09T18:32:05.274Z,34.80
2019-02-09T18:34:32.252Z,36.65
2019-02-09T18:36:58.850Z,39.47
2019-02-09T18:39:25.555Z,39.18
2019-02-09T18:41:52.541Z,36.90
2019-02-09T18:44:19.723Z,37.85
2019-02-09T18:46:46.640Z,30.83
2019-02-09T18:49:13.502Z,35.57
2019-02-09T18:51:42.327Z,35.70
2019-02-09T18:54:08.920Z,37.43
2019-02-09T18:56:35.620Z,39.83
2019-02-09T18:59:02.519Z,42.70
2019-02-09T19:01:29.908Z,41.42
2019-02-09T19:03:57.667Z,32.97
2019-02-09T19:06:24.824Z,38.13
2019-02-09T19:08:51.656Z,38.13
2019-02-09T19:11:18.753Z,35.85
2019-02-09T19:13:45.515Z,36.87
2019-02-09T19:16:12.512Z,40.67
2019-02-09T19:18:39.412Z,40.33
2019-02-09T19:21:06.273Z,39.50
2019-02-09T19:23:34.273Z,37.40
2019-02-09T19:26:00.867Z,37.23
2019-02-09T19:28:27.604Z,42.77
2019-02-09T19:30:54.588Z,39.27
2019-02-09T19:33:21.543Z,42.73
2019-02-09T19:35:48.637Z,45.20
2019-02-09T19:38:15.375Z,45.00
2019-02-09T19:40:42.941Z,46.28
2019-02-09T19:43:09.614Z,46.63
2019-02-09T19:45:36.227Z,47.07
2019-02-09T19:48:03.559Z,51.65
2019-02-09T19:50:30.571Z,44.90
2019-02-09T19:52:57.201Z,44.30
2019-02-09T19:55:23.827Z,42.20
2019-02-09T19:57:50.883Z,49.23
2019-02-09T20:00:17.736Z,46.77
2019-02-09T20:02:44.499Z,38.67
2019-02-09T20:05:19.569Z,43.50
2019-02-09T20:07:39.952Z,44.60
2019-02-09T20:10:06.590Z,44.57
2019-02-09T20:12:33.273Z,45.07
2019-02-09T20:15:00.053Z,39.40
2019-02-09T20:17:27.088Z,39.30
2019-02-09T20:19:54.136Z,41.10
2019-02-09T20:22:21.022Z,40.63
2019-02-09T20:24:47.678Z,42.43
2019-02-09T20:27:14.361Z,42.43
2019-02-09T20:29:41.249Z,36.93
2019-02-09T20:32:07.873Z,45.83
2019-02-09T20:34:34.558Z,43.83
2019-02-09T20:37:01.406Z,42.20
2019-02-09T20:39:28.283Z,48.20
2019-02-09T20:41:56.190Z,44.70
2019-02-09T20:44:25.291Z,46.93
2019-02-09T20:46:56.600Z,48.65
2019-02-09T20:49:27.241Z,41.88
2019-02-09T20:51:54.883Z,35.97
2019-02-09T20:54:28.373Z,37.20
2019-02-09T20:56:55.026Z,36.63
2019-02-09T20:59:28.137Z,42.80
2019-02-09T21:01:57.631Z,38.33
2019-02-09T21:04:27.564Z,36.67
2019-02-09T21:06:57.538Z,37.25
2019-02-09T21:09:29.699Z,47.57
2019-02-09T21:12:00.489Z,42.60
2019-02-09T21:14:28.115Z,39.17
2019-02-09T21:16:57.603Z,41.58
2019-02-09T21:19:25.255Z,40.60
2019-02-09T21:21:55.119Z,36.87
2019-02-09T21:24:23.880Z,38.08
2019-02-09T21:26:50.488Z,43.97
2019-02-09T21:29:21.780Z,47.37
2019-02-09T21:31:51.192Z,41.70
2019-02-09T21:34:17.857Z,41.10
2019-02-09T21:36:48.133Z,38.90
2019-02-09T21:39:19.329Z,52.10
2019-02-09T21:41:45.968Z,48.97
2019-02-09T21:44:13.688Z,42.83
2019-02-09T21:46:41.841Z,50.80
2019-02-09T21:49:09.672Z,46.17
2019-02-09T21:51:39.595Z,36.00
2019-02-09T21:54:10.255Z,46.57
2019-02-09T21:56:37.891Z,39.87
2019-02-09T21:59:09.076Z,39.53
2019-02-09T22:01:37.071Z,42.90
2019-02-09T22:04:03.937Z,42.03
2019-02-09T22:06:31.030Z,45.63
2019-02-09T22:08:57.930Z,35.90
2019-02-09T22:11:24.724Z,39.53
2019-02-09T22:13:52.414Z,36.95
2019-02-09T22:16:19.068Z,37.90
2019-02-09T22:18:46.111Z,36.80
2019-02-09T22:21:13.076Z,46.20
2019-02-09T22:23:39.682Z,44.23
2019-02-09T22:26:13.102Z,45.83
2019-02-09T22:28:37.557Z,42.87
2019-02-09T22:31:05.276Z,38.60
2019-02-09T22:33:35.325Z,43.33
2019-02-09T22:36:06.340Z,44.00
2019-02-09T22:38:34.938Z,47.43
2019-02-09T22:41:02.030Z,43.07
2019-02-09T22:43:29.753Z,41.03
2019-02-09T22:45:57.809Z,46.30
2019-02-09T22:48:27.356Z,43.57
2019-02-09T22:50:55.117Z,45.67
2019-02-09T22:53:22.816Z,47.30
2019-02-09T22:55:51.603Z,44.80
2019-02-09T22:58:18.442Z,37.63
2019-02-09T23:00:51.621Z,48.37
2019-02-09T23:03:17.931Z,44.13
2019-02-09T23:05:44.523Z,39.77
2019-02-09T23:08:11.427Z,41.60
2019-02-09T23:10:38.156Z,45.15
2019-02-09T23:13:04.835Z,48.10
2019-02-09T23:15:31.581Z,47.83
2019-02-09T23:17:58.476Z,45.00
2019-02-09T23:20:25.068Z,56.70
2019-02-09T23:22:51.730Z,45.73
2019-02-09T23:25:18.361Z,40.30
2019-02-09T23:27:44.985Z,40.90
2019-02-09T23:30:11.779Z,45.97
2019-02-09T23:32:38.402Z,38.55
2019-02-09T23:35:05.032Z,41.77
2019-02-09T23:37:32.168Z,39.80
2019-02-09T23:39:58.979Z,41.70
2019-02-09T23:42:25.656Z,42.97
2019-02-09T23:44:52.283Z,48.23
2019-02-09T23:47:19.138Z,43.73
2019-02-09T23:49:46.105Z,35.57
2019-02-09T23:52:13.179Z,47.62
2019-02-09T23:54:40.421Z,39.73
2019-02-09T23:57:07.127Z,38.60
2019-02-09T23:59:33.731Z,40.77
